createdAt,value
2022-09-09T00:00:31.007Z,18.60
2022-09-09T00:01:10.119Z,18.60
2022-09-09T00:01:52.726Z,18.60
2022-09-09T00:02:29.222Z,18.60
2022-09-09T00:03:09.650Z,18.60
2022-09-09T00:03:46.306Z,18.60
2022-09-09T00:04:28.220Z,18.50
2022-09-09T00:05:03.789Z,18.50
2022-09-09T00:05:45.116Z,18.50
2022-09-09T00:06:23.578Z,18.40
2022-09-09T00:07:05.618Z,18.40
2022-09-09T00:07:47.806Z,18.40
2022-09-09T00:08:22.725Z,18.60
2022-09-09T00:09:03.272Z,18.40
2022-09-09T00:09:43.348Z,18.40
2022-09-09T00:10:23.885Z,18.40
2022-09-09T00:11:00.816Z,18.40
2022-09-09T00:11:41.132Z,18.40
2022-09-09T00:12:16.882Z,18.40
2022-09-09T00:12:58.173Z,18.30
2022-09-09T00:13:38.166Z,18.30
2022-09-09T00:14:18.768Z,18.40
2022-09-09T00:14:55.653Z,18.30
2022-09-09T00:15:35.947Z,18.30
2022-09-09T00:16:13.452Z,18.30
2022-09-09T00:16:51.421Z,18.30
2022-09-09T00:17:35.177Z,18.30
2022-09-09T00:18:16.453Z,18.30
2022-09-09T00:18:58.335Z,18.30
2022-09-09T00:19:40.989Z,18.30
2022-09-09T00:20:17.174Z,18.30
2022-09-09T00:20:58.082Z,18.30
2022-09-09T00:21:37.000Z,18.30
2022-09-09T00:22:16.833Z,18.30
2022-09-09T00:22:54.669Z,18.30
2022-09-09T00:23:30.259Z,18.30
2022-09-09T00:24:10.259Z,18.30
2022-09-09T00:24:45.233Z,18.30
2022-09-09T00:25:25.504Z,18.30
2022-09-09T00:26:06.262Z,18.20
2022-09-09T00:26:43.506Z,18.30
2022-09-09T00:27:26.318Z,18.30
2022-09-09T00:27:59.513Z,18.30
2022-09-09T00:28:35.267Z,18.30
2022-09-09T00:29:19.590Z,18.30
2022-09-09T00:29:55.856Z,18.30
2022-09-09T00:30:32.562Z,18.30
2022-09-09T00:31:14.789Z,18.30
2022-09-09T00:31:48.090Z,18.20
2022-09-09T00:32:20.201Z,18.20
2022-09-09T00:32:59.066Z,18.20
2022-09-09T00:33:32.253Z,18.30
2022-09-09T00:34:12.142Z,18.20
2022-09-09T00:34:52.880Z,18.20
2022-09-09T00:35:28.207Z,18.20
2022-09-09T00:36:01.910Z,18.30
2022-09-09T00:36:35.620Z,18.30
2022-09-09T00:37:10.479Z,18.30
2022-09-09T00:37:43.064Z,18.30
2022-09-09T00:38:18.952Z,18.30
2022-09-09T00:38:56.200Z,18.30
2022-09-09T00:39:33.657Z,18.30
2022-09-09T00:40:18.620Z,18.30
2022-09-09T00:40:53.138Z,18.20
2022-09-09T00:41:38.702Z,18.20
2022-09-09T00:42:17.284Z,18.20
2022-09-09T00:42:59.311Z,18.20
2022-09-09T00:43:36.208Z,18.20
2022-09-09T00:44:29.683Z,18.20
2022-09-09T00:45:16.876Z,18.20
2022-09-09T00:46:07.258Z,18.20
2022-09-09T00:47:06.025Z,18.20
2022-09-09T00:47:45.378Z,18.20
2022-09-09T00:48:17.407Z,18.20
2022-09-09T00:48:59.802Z,18.20
2022-09-09T00:49:44.429Z,18.20
2022-09-09T00:50:37.090Z,18.20
2022-09-09T00:51:16.257Z,18.20
2022-09-09T00:51:58.875Z,18.20
2022-09-09T00:52:41.663Z,18.20
2022-09-09T00:53:25.404Z,18.30
2022-09-09T00:54:16.549Z,18.30
2022-09-09T00:54:58.464Z,18.30
2022-09-09T00:55:41.877Z,18.20
2022-09-09T00:56:15.000Z,18.30
2022-09-09T00:56:55.797Z,18.20
2022-09-09T00:57:30.375Z,18.30
2022-09-09T00:58:02.208Z,18.30
2022-09-09T00:58:36.565Z,18.30
2022-09-09T00:59:20.317Z,18.30
2022-09-09T00:59:53.697Z,18.30
2022-09-09T01:00:29.640Z,18.30
2022-09-09T01:01:07.403Z,18.30
2022-09-09T01:01:40.400Z,18.50
2022-09-09T01:02:20.145Z,18.30
2022-09-09T01:03:11.278Z,18.30
2022-09-09T01:03:51.143Z,18.20
2022-09-09T01:04:35.554Z,18.40
2022-09-09T01:05:13.454Z,18.30
2022-09-09T01:05:52.159Z,18.30
2022-09-09T01:06:31.280Z,18.30
2022-09-09T01:07:10.188Z,18.30
2022-09-09T01:07:49.452Z,18.30
2022-09-09T01:08:37.684Z,18.30
2022-09-09T01:09:18.197Z,18.30
2022-09-09T01:09:57.250Z,18.20
2022-09-09T01:10:37.076Z,18.30
2022-09-09T01:11:15.405Z,18.30
2022-09-09T01:11:57.406Z,18.30
2022-09-09T01:12:42.662Z,18.30
2022-09-09T01:13:20.206Z,18.20
2022-09-09T01:14:02.335Z,18.30
2022-09-09T01:14:43.237Z,18.30
2022-09-09T01:15:20.679Z,18.20
2022-09-09T01:15:58.531Z,18.20
2022-09-09T01:16:33.801Z,18.20
2022-09-09T01:17:12.034Z,18.20
2022-09-09T01:17:53.729Z,18.40
2022-09-09T01:18:29.878Z,18.20
2022-09-09T01:19:03.837Z,18.20
2022-09-09T01:19:55.473Z,18.20
2022-09-09T01:20:31.040Z,18.20
2022-09-09T01:21:10.580Z,18.10
2022-09-09T01:21:55.358Z,18.10
2022-09-09T01:22:35.555Z,18.10
2022-09-09T01:23:29.406Z,18.10
2022-09-09T01:24:22.165Z,18.10
2022-09-09T01:25:16.065Z,18.00
2022-09-09T01:26:13.577Z,18.00
2022-09-09T01:26:47.839Z,17.90
2022-09-09T01:27:21.634Z,17.90
2022-09-09T01:27:57.257Z,17.90
2022-09-09T01:28:30.723Z,18.00
2022-09-09T01:29:02.730Z,18.00
2022-09-09T01:29:34.642Z,18.00
2022-09-09T01:30:11.575Z,18.00
2022-09-09T01:30:43.744Z,18.00
2022-09-09T01:31:19.037Z,18.00
2022-09-09T01:31:57.334Z,18.10
2022-09-09T01:32:44.436Z,18.10
2022-09-09T01:33:18.850Z,18.10
2022-09-09T01:33:52.060Z,18.00
2022-09-09T01:34:25.919Z,18.00
2022-09-09T01:34:57.841Z,18.10
2022-09-09T01:35:39.478Z,18.10
2022-09-09T01:36:15.053Z,18.10
2022-09-09T01:36:52.635Z,18.10
2022-09-09T01:37:24.460Z,18.10
2022-09-09T01:37:56.281Z,18.00
2022-09-09T01:38:31.795Z,18.00
2022-09-09T01:39:04.151Z,18.10
2022-09-09T01:39:37.195Z,18.00
2022-09-09T01:40:10.670Z,18.00
2022-09-09T01:40:42.535Z,18.00
2022-09-09T01:41:15.744Z,18.00
2022-09-09T01:41:48.632Z,18.00
2022-09-09T01:42:20.398Z,18.00
2022-09-09T01:42:53.134Z,18.00
2022-09-09T01:43:27.254Z,18.10
2022-09-09T01:43:59.252Z,18.10
2022-09-09T01:44:31.829Z,18.10
2022-09-09T01:45:05.984Z,18.10
2022-09-09T01:45:39.212Z,18.10
2022-09-09T01:46:13.074Z,18.10
2022-09-09T01:46:46.186Z,18.10
2022-09-09T01:47:18.517Z,18.10
2022-09-09T01:47:51.459Z,18.10
2022-09-09T01:48:24.664Z,18.00
2022-09-09T01:48:58.913Z,18.00
2022-09-09T01:49:31.878Z,18.00
2022-09-09T01:50:04.422Z,18.00
2022-09-09T01:50:37.571Z,18.10
2022-09-09T01:51:11.334Z,18.10
2022-09-09T01:51:44.617Z,18.10
2022-09-09T01:52:17.436Z,18.10
2022-09-09T01:52:53.493Z,18.10
2022-09-09T01:53:25.428Z,18.10
2022-09-09T01:53:58.170Z,18.10
2022-09-09T01:54:34.024Z,18.10
2022-09-09T01:55:07.398Z,18.10
2022-09-09T01:55:42.623Z,18.10
2022-09-09T01:56:25.851Z,18.10
2022-09-09T01:57:10.799Z,18.10
2022-09-09T01:57:52.935Z,18.20
2022-09-09T01:58:34.962Z,18.10
2022-09-09T01:59:25.702Z,18.10
2022-09-09T02:00:07.594Z,18.10
2022-09-09T02:00:45.453Z,18.00
2022-09-09T02:01:26.357Z,18.00
2022-09-09T02:02:09.483Z,18.00
2022-09-09T02:02:50.692Z,18.00
2022-09-09T02:03:26.742Z,18.00
2022-09-09T02:04:02.292Z,18.00
2022-09-09T02:04:40.253Z,18.00
2022-09-09T02:05:23.162Z,18.00
2022-09-09T02:06:05.053Z,18.00
2022-09-09T02:06:39.632Z,18.00
2022-09-09T02:07:23.137Z,18.00
2022-09-09T02:08:02.513Z,18.00
2022-09-09T02:08:40.895Z,17.90
2022-09-09T02:09:15.165Z,18.00
2022-09-09T02:09:52.612Z,18.00
2022-09-09T02:10:29.816Z,18.00
2022-09-09T02:11:07.059Z,18.00
2022-09-09T02:11:41.833Z,18.00
2022-09-09T02:12:18.720Z,18.00
2022-09-09T02:12:56.736Z,17.90
2022-09-09T02:13:33.381Z,18.00
2022-09-09T02:14:11.048Z,17.90
2022-09-09T02:14:48.341Z,17.90
2022-09-09T02:15:32.177Z,17.90
2022-09-09T02:16:09.064Z,17.90
2022-09-09T02:16:47.963Z,17.90
2022-09-09T02:17:27.530Z,17.90
2022-09-09T02:18:02.273Z,17.80
2022-09-09T02:18:39.463Z,17.80
2022-09-09T02:19:17.069Z,17.90
2022-09-09T02:19:53.853Z,17.80
2022-09-09T02:20:27.662Z,17.90
2022-09-09T02:21:01.349Z,17.90
2022-09-09T02:21:35.903Z,17.80
2022-09-09T02:22:07.735Z,17.90
2022-09-09T02:22:44.905Z,17.90
2022-09-09T02:23:17.644Z,17.90
2022-09-09T02:23:52.932Z,17.80
2022-09-09T02:24:26.944Z,17.80
2022-09-09T02:25:00.961Z,17.80
2022-09-09T02:25:36.699Z,17.80
2022-09-09T02:26:14.215Z,17.80
2022-09-09T02:26:50.328Z,17.80
2022-09-09T02:27:24.538Z,17.80
2022-09-09T02:27:59.099Z,17.80
2022-09-09T02:28:34.138Z,17.90
2022-09-09T02:29:11.500Z,17.90
2022-09-09T02:29:47.668Z,17.90
2022-09-09T02:30:21.177Z,17.90
2022-09-09T02:30:55.946Z,17.90
2022-09-09T02:31:28.445Z,17.90
2022-09-09T02:32:05.018Z,17.90
2022-09-09T02:32:40.378Z,17.90
2022-09-09T02:33:14.989Z,17.90
2022-09-09T02:33:52.147Z,17.90
2022-09-09T02:34:28.533Z,17.90
2022-09-09T02:35:06.429Z,17.90
2022-09-09T02:35:39.378Z,17.90
2022-09-09T02:36:14.306Z,17.90
2022-09-09T02:36:48.112Z,17.90
2022-09-09T02:37:22.810Z,17.90
2022-09-09T02:37:57.649Z,17.90
2022-09-09T02:38:36.071Z,17.90
2022-09-09T02:39:12.293Z,17.90
2022-09-09T02:39:45.222Z,17.90
2022-09-09T02:40:18.349Z,17.80
2022-09-09T02:40:50.221Z,17.80
2022-09-09T02:41:26.929Z,17.90
2022-09-09T02:42:01.071Z,17.90
2022-09-09T02:42:33.217Z,17.90
2022-09-09T02:43:05.325Z,17.80
2022-09-09T02:43:38.611Z,17.80
2022-09-09T02:44:12.764Z,17.90
2022-09-09T02:44:45.894Z,17.90
2022-09-09T02:45:21.201Z,17.90
2022-09-09T02:45:58.796Z,17.90
2022-09-09T02:46:59.613Z,17.80
2022-09-09T02:47:35.760Z,17.80
2022-09-09T02:48:16.036Z,17.90
2022-09-09T02:48:56.098Z,17.80
2022-09-09T02:49:37.599Z,17.80
2022-09-09T02:50:15.455Z,17.70
2022-09-09T02:50:56.956Z,17.70
2022-09-09T02:51:37.732Z,17.70
2022-09-09T02:52:17.118Z,17.60
2022-09-09T02:53:00.021Z,17.60
2022-09-09T02:53:39.459Z,17.60
2022-09-09T02:54:22.510Z,17.60
2022-09-09T02:55:03.557Z,17.60
2022-09-09T02:55:40.813Z,17.60
2022-09-09T02:56:18.403Z,17.60
2022-09-09T02:56:55.087Z,17.60
2022-09-09T02:57:31.613Z,17.60
2022-09-09T02:58:06.901Z,17.60
2022-09-09T02:58:40.653Z,17.60
2022-09-09T02:59:12.620Z,17.60
2022-09-09T02:59:46.751Z,17.60
2022-09-09T03:00:25.360Z,17.60
2022-09-09T03:00:59.541Z,17.60
2022-09-09T03:01:32.700Z,17.60
2022-09-09T03:02:05.129Z,17.60
2022-09-09T03:02:36.989Z,17.60
2022-09-09T03:03:11.030Z,17.70
2022-09-09T03:03:43.066Z,17.60
2022-09-09T03:04:15.054Z,17.60
2022-09-09T03:04:51.787Z,17.70
2022-09-09T03:05:24.499Z,17.70
2022-09-09T03:05:56.975Z,17.70
2022-09-09T03:06:29.705Z,17.70
2022-09-09T03:07:01.508Z,17.70
2022-09-09T03:07:33.737Z,17.60
2022-09-09T03:08:07.357Z,17.60
2022-09-09T03:08:39.314Z,17.60
2022-09-09T03:09:11.505Z,17.70
2022-09-09T03:09:44.273Z,17.60
2022-09-09T03:10:16.182Z,17.60
2022-09-09T03:10:48.379Z,17.60
2022-09-09T03:11:21.123Z,17.60
2022-09-09T03:11:53.074Z,17.60
2022-09-09T03:12:24.968Z,17.60
2022-09-09T03:12:59.122Z,17.60
2022-09-09T03:13:31.008Z,17.60
2022-09-09T03:14:03.353Z,17.60
2022-09-09T03:14:36.262Z,17.60
2022-09-09T03:15:09.225Z,17.60
2022-09-09T03:15:41.002Z,17.60
2022-09-09T03:16:13.848Z,17.60
2022-09-09T03:16:45.698Z,17.60
2022-09-09T03:17:17.776Z,17.60
2022-09-09T03:17:50.601Z,17.60
2022-09-09T03:18:22.381Z,17.60
2022-09-09T03:18:54.214Z,17.60
2022-09-09T03:19:26.944Z,17.60
2022-09-09T03:19:59.609Z,17.50
2022-09-09T03:20:31.959Z,17.50
2022-09-09T03:21:04.850Z,17.50
2022-09-09T03:21:36.756Z,17.50
2022-09-09T03:22:10.708Z,17.50
2022-09-09T03:22:45.911Z,17.60
2022-09-09T03:23:18.209Z,17.60
2022-09-09T03:23:49.985Z,17.60
2022-09-09T03:24:23.614Z,17.60
2022-09-09T03:24:55.427Z,17.60
2022-09-09T03:25:27.940Z,17.60
2022-09-09T03:26:00.979Z,17.60
2022-09-09T03:26:32.845Z,17.60
2022-09-09T03:27:04.885Z,17.60
2022-09-09T03:27:37.637Z,17.60
2022-09-09T03:28:10.749Z,17.60
2022-09-09T03:28:42.692Z,17.60
2022-09-09T03:29:15.685Z,17.60
2022-09-09T03:29:47.709Z,17.60
2022-09-09T03:30:19.646Z,17.60
2022-09-09T03:30:52.823Z,17.60
2022-09-09T03:31:25.028Z,17.60
2022-09-09T03:31:57.129Z,17.50
2022-09-09T03:32:29.897Z,17.50
2022-09-09T03:33:01.740Z,17.60
2022-09-09T03:33:33.605Z,17.60
2022-09-09T03:34:06.639Z,17.60
2022-09-09T03:34:39.964Z,17.60
2022-09-09T03:35:11.724Z,17.60
2022-09-09T03:35:49.544Z,17.60
2022-09-09T03:36:22.593Z,17.60
2022-09-09T03:36:54.420Z,17.60
2022-09-09T03:37:26.264Z,17.60
2022-09-09T03:37:58.047Z,17.60
2022-09-09T03:38:30.848Z,17.70
2022-09-09T03:39:04.030Z,17.60
2022-09-09T03:39:35.830Z,17.50
2022-09-09T03:40:10.830Z,17.50
2022-09-09T03:40:50.146Z,17.50
2022-09-09T03:41:24.732Z,17.40
2022-09-09T03:41:57.475Z,17.40
2022-09-09T03:42:29.272Z,17.40
2022-09-09T03:43:01.095Z,17.40
2022-09-09T03:43:35.384Z,17.40
2022-09-09T03:44:07.182Z,17.40
2022-09-09T03:44:38.987Z,17.30
2022-09-09T03:45:12.523Z,17.30
2022-09-09T03:45:48.160Z,17.40
2022-09-09T03:46:20.502Z,17.40
2022-09-09T03:46:53.238Z,17.30
2022-09-09T03:47:25.030Z,17.30
2022-09-09T03:47:57.985Z,17.30
2022-09-09T03:48:30.840Z,17.30
2022-09-09T03:49:03.250Z,17.30
2022-09-09T03:49:35.087Z,17.30
2022-09-09T03:50:10.432Z,17.40
2022-09-09T03:50:45.675Z,17.40
2022-09-09T03:51:17.786Z,17.40
2022-09-09T03:51:50.588Z,17.40
2022-09-09T03:52:25.795Z,17.40
2022-09-09T03:52:57.558Z,17.40
2022-09-09T03:53:30.674Z,17.40
2022-09-09T03:54:02.573Z,17.40
2022-09-09T03:54:34.984Z,17.40
2022-09-09T03:55:08.878Z,17.40
2022-09-09T03:55:42.389Z,17.40
2022-09-09T03:56:14.366Z,17.40
2022-09-09T03:56:47.105Z,17.50
2022-09-09T03:57:18.871Z,17.50
2022-09-09T03:57:50.647Z,17.50
2022-09-09T03:58:25.051Z,17.50
2022-09-09T03:58:58.436Z,17.50
2022-09-09T03:59:30.985Z,17.50
2022-09-09T04:00:05.954Z,17.50
2022-09-09T04:00:37.812Z,17.40
2022-09-09T04:01:14.122Z,17.40
2022-09-09T04:01:48.034Z,17.40
2022-09-09T04:02:19.913Z,17.40
2022-09-09T04:02:54.975Z,17.40
2022-09-09T04:03:28.635Z,17.40
2022-09-09T04:04:00.966Z,17.40
2022-09-09T04:04:33.154Z,17.40
2022-09-09T04:05:07.839Z,17.40
2022-09-09T04:05:43.037Z,17.40
2022-09-09T04:06:15.985Z,17.40
2022-09-09T04:06:49.318Z,17.40
2022-09-09T04:07:21.117Z,17.50
2022-09-09T04:07:52.903Z,17.50
2022-09-09T04:08:26.414Z,17.50
2022-09-09T04:08:58.338Z,17.50
2022-09-09T04:09:30.129Z,17.50
2022-09-09T04:10:03.254Z,17.50
2022-09-09T04:10:37.234Z,17.50
2022-09-09T04:11:10.563Z,17.50
2022-09-09T04:11:43.320Z,17.50
2022-09-09T04:12:15.119Z,17.50
2022-09-09T04:12:49.532Z,17.50
2022-09-09T04:13:22.497Z,17.50
2022-09-09T04:13:54.265Z,17.50
2022-09-09T04:14:29.616Z,17.50
2022-09-09T04:15:03.018Z,17.50
2022-09-09T04:15:37.509Z,17.60
2022-09-09T04:16:14.022Z,17.50
2022-09-09T04:16:45.996Z,17.60
2022-09-09T04:17:18.234Z,17.60
2022-09-09T04:17:50.950Z,17.60
2022-09-09T04:18:23.443Z,17.60
2022-09-09T04:18:56.935Z,17.60
2022-09-09T04:19:29.053Z,17.70
2022-09-09T04:20:02.062Z,17.70
2022-09-09T04:20:35.013Z,17.70
2022-09-09T04:21:07.861Z,17.70
2022-09-09T04:21:40.657Z,17.70
2022-09-09T04:22:13.420Z,17.70
2022-09-09T04:22:45.216Z,17.70
2022-09-09T04:23:19.573Z,17.70
2022-09-09T04:23:52.313Z,17.70
2022-09-09T04:24:24.230Z,17.70
2022-09-09T04:24:56.088Z,17.70
2022-09-09T04:25:29.065Z,17.70
2022-09-09T04:26:01.936Z,17.70
2022-09-09T04:26:33.975Z,17.70
2022-09-09T04:27:06.914Z,17.70
2022-09-09T04:27:38.689Z,17.70
2022-09-09T04:28:10.461Z,17.70
2022-09-09T04:28:43.321Z,17.70
2022-09-09T04:29:15.103Z,17.70
2022-09-09T04:29:48.199Z,17.70
2022-09-09T04:30:20.989Z,17.60
2022-09-09T04:30:53.263Z,17.70
2022-09-09T04:31:25.182Z,17.70
2022-09-09T04:31:58.052Z,17.70
2022-09-09T04:32:29.899Z,17.70
2022-09-09T04:33:01.654Z,17.70
2022-09-09T04:33:39.398Z,17.70
2022-09-09T04:34:12.030Z,17.70
2022-09-09T04:34:45.853Z,17.70
2022-09-09T04:35:18.017Z,17.90
2022-09-09T04:35:51.130Z,17.70
2022-09-09T04:36:24.524Z,17.70
2022-09-09T04:36:57.839Z,17.70
2022-09-09T04:37:29.701Z,17.70
2022-09-09T04:38:03.505Z,17.70
2022-09-09T04:38:35.298Z,17.70
2022-09-09T04:39:08.185Z,17.70
2022-09-09T04:39:39.997Z,17.70
2022-09-09T04:40:11.907Z,17.70
2022-09-09T04:40:45.443Z,17.70
2022-09-09T04:41:17.493Z,17.70
2022-09-09T04:41:50.779Z,17.70
2022-09-09T04:42:22.584Z,17.70
2022-09-09T04:42:54.393Z,17.70
2022-09-09T04:43:28.674Z,17.70
2022-09-09T04:44:01.633Z,17.70
2022-09-09T04:44:34.377Z,17.70
2022-09-09T04:45:08.773Z,17.70
2022-09-09T04:45:41.315Z,17.70
2022-09-09T04:46:14.141Z,17.70
2022-09-09T04:46:46.090Z,17.70
2022-09-09T04:47:18.498Z,17.60
2022-09-09T04:47:51.344Z,17.60
2022-09-09T04:48:23.605Z,17.60
2022-09-09T04:48:56.357Z,17.60
2022-09-09T04:49:28.130Z,17.60
2022-09-09T04:49:59.955Z,17.60
2022-09-09T04:50:32.823Z,17.70
2022-09-09T04:51:06.414Z,17.60
2022-09-09T04:51:39.885Z,17.60
2022-09-09T04:52:11.681Z,17.60
2022-09-09T04:52:43.673Z,17.70
2022-09-09T04:53:15.473Z,17.70
2022-09-09T04:53:49.720Z,17.70
2022-09-09T04:54:21.496Z,17.60
2022-09-09T04:54:54.927Z,17.70
2022-09-09T04:55:26.723Z,17.60
2022-09-09T04:56:08.146Z,17.70
2022-09-09T04:56:39.947Z,17.70
2022-09-09T04:57:15.353Z,17.70
2022-09-09T04:57:51.297Z,17.70
2022-09-09T04:58:24.516Z,17.60
2022-09-09T04:58:57.410Z,17.60
2022-09-09T04:59:29.202Z,17.60
2022-09-09T05:00:00.968Z,17.60
2022-09-09T05:00:36.379Z,17.60
2022-09-09T05:01:09.724Z,17.60
2022-09-09T05:01:43.360Z,17.60
2022-09-09T05:02:15.195Z,17.60
2022-09-09T05:02:47.983Z,17.60
2022-09-09T05:03:21.174Z,17.60
2022-09-09T05:03:54.045Z,17.60
2022-09-09T05:04:25.828Z,17.60
2022-09-09T05:04:58.969Z,17.60
2022-09-09T05:05:31.137Z,17.60
2022-09-09T05:06:07.978Z,17.60
2022-09-09T05:06:40.836Z,17.60
2022-09-09T05:07:12.641Z,17.60
2022-09-09T05:07:44.498Z,17.60
2022-09-09T05:08:17.302Z,17.50
2022-09-09T05:08:50.192Z,17.60
2022-09-09T05:09:21.955Z,17.60
2022-09-09T05:09:55.176Z,17.60
2022-09-09T05:10:27.202Z,17.60
2022-09-09T05:11:00.245Z,17.50
2022-09-09T05:11:35.447Z,17.60
2022-09-09T05:12:07.801Z,17.50
2022-09-09T05:12:39.587Z,17.50
2022-09-09T05:13:12.395Z,17.50
2022-09-09T05:13:44.995Z,17.50
2022-09-09T05:14:17.015Z,17.40
2022-09-09T05:14:49.749Z,17.50
2022-09-09T05:15:22.230Z,17.50
2022-09-09T05:15:56.090Z,17.50
2022-09-09T05:16:29.154Z,17.50
2022-09-09T05:17:01.084Z,17.50
2022-09-09T05:17:33.521Z,17.50
2022-09-09T05:18:06.293Z,17.50
2022-09-09T05:18:38.238Z,17.50
2022-09-09T05:19:10.175Z,17.50
2022-09-09T05:19:43.960Z,17.50
2022-09-09T05:20:17.558Z,17.50
2022-09-09T05:20:49.537Z,17.50
2022-09-09T05:21:23.944Z,17.50
2022-09-09T05:21:55.785Z,17.50
2022-09-09T05:22:27.769Z,17.50
2022-09-09T05:23:00.570Z,17.40
2022-09-09T05:23:32.781Z,17.40
2022-09-09T05:24:05.804Z,17.50
2022-09-09T05:24:37.645Z,17.50
2022-09-09T05:25:09.603Z,17.50
2022-09-09T05:25:42.625Z,17.50
2022-09-09T05:26:17.635Z,17.50
2022-09-09T05:26:49.773Z,17.50
2022-09-09T05:27:22.685Z,17.50
2022-09-09T05:27:54.721Z,17.50
2022-09-09T05:28:26.725Z,17.50
2022-09-09T05:29:01.270Z,17.40
2022-09-09T05:29:34.270Z,17.40
2022-09-09T05:30:07.076Z,17.40
2022-09-09T05:30:39.813Z,17.40
2022-09-09T05:31:14.913Z,17.50
2022-09-09T05:31:48.035Z,17.50
2022-09-09T05:32:19.898Z,17.50
2022-09-09T05:32:52.642Z,17.50
2022-09-09T05:33:25.222Z,17.50
2022-09-09T05:33:57.185Z,17.50
2022-09-09T05:34:30.117Z,17.50
2022-09-09T05:35:02.450Z,17.50
2022-09-09T05:35:34.369Z,17.50
2022-09-09T05:36:09.053Z,17.50
2022-09-09T05:36:40.923Z,17.50
2022-09-09T05:37:12.753Z,17.50
2022-09-09T05:37:46.885Z,17.50
2022-09-09T05:38:19.452Z,17.60
2022-09-09T05:38:51.489Z,17.40
2022-09-09T05:39:24.254Z,17.50
2022-09-09T05:39:56.130Z,17.50
2022-09-09T05:40:27.974Z,17.50
2022-09-09T05:41:01.276Z,17.50
2022-09-09T05:41:33.826Z,17.50
2022-09-09T05:42:07.272Z,17.50
2022-09-09T05:42:39.911Z,17.50
2022-09-09T05:43:11.669Z,17.50
2022-09-09T05:43:46.465Z,17.50
2022-09-09T05:44:18.497Z,17.50
2022-09-09T05:44:51.863Z,17.50
2022-09-09T05:45:24.993Z,17.50
2022-09-09T05:46:02.462Z,17.50
2022-09-09T05:46:36.641Z,17.50
2022-09-09T05:47:09.406Z,17.50
2022-09-09T05:47:41.225Z,17.50
2022-09-09T05:48:13.962Z,17.60
2022-09-09T05:48:47.512Z,17.60
2022-09-09T05:49:19.313Z,17.60
2022-09-09T05:49:52.117Z,17.60
2022-09-09T05:50:24.139Z,17.60
2022-09-09T05:50:57.169Z,17.60
2022-09-09T05:51:31.819Z,17.60
2022-09-09T05:52:04.836Z,17.60
2022-09-09T05:52:36.966Z,17.70
2022-09-09T05:53:09.705Z,17.70
2022-09-09T05:53:41.473Z,17.70
2022-09-09T05:54:16.240Z,17.70
2022-09-09T05:54:48.086Z,17.70
2022-09-09T05:55:19.870Z,17.70
2022-09-09T05:55:53.243Z,17.80
2022-09-09T05:56:26.678Z,17.70
2022-09-09T05:56:59.144Z,17.70
2022-09-09T05:57:31.935Z,17.70
2022-09-09T05:58:03.793Z,17.70
2022-09-09T05:58:36.289Z,17.70
2022-09-09T05:59:09.604Z,17.70
2022-09-09T05:59:41.409Z,17.70
2022-09-09T06:00:16.029Z,17.70
2022-09-09T06:00:48.909Z,17.70
2022-09-09T06:01:22.865Z,17.70
2022-09-09T06:01:57.191Z,17.70
2022-09-09T06:02:29.182Z,17.80
2022-09-09T06:03:01.205Z,17.70
2022-09-09T06:03:33.549Z,17.80
2022-09-09T06:04:06.284Z,17.80
2022-09-09T06:04:38.196Z,17.80
2022-09-09T06:05:11.642Z,17.90
2022-09-09T06:05:44.352Z,17.90
2022-09-09T06:06:18.473Z,17.90
2022-09-09T06:06:50.277Z,17.90
2022-09-09T06:07:23.009Z,17.90
2022-09-09T06:07:54.947Z,17.90
2022-09-09T06:08:27.123Z,18.00
2022-09-09T06:09:00.011Z,17.90
2022-09-09T06:09:31.942Z,18.00
2022-09-09T06:10:04.315Z,18.00
2022-09-09T06:10:37.186Z,17.90
2022-09-09T06:11:14.658Z,18.00
2022-09-09T06:11:47.574Z,18.00
2022-09-09T06:12:19.376Z,18.00
2022-09-09T06:12:53.818Z,18.00
2022-09-09T06:13:26.626Z,18.00
2022-09-09T06:13:58.542Z,18.00
2022-09-09T06:14:31.405Z,18.10
2022-09-09T06:15:04.694Z,18.20
2022-09-09T06:15:37.914Z,18.00
2022-09-09T06:16:11.447Z,18.00
2022-09-09T06:16:44.903Z,18.00
2022-09-09T06:17:19.048Z,18.00
2022-09-09T06:17:55.517Z,17.90
2022-09-09T06:18:27.538Z,17.90
2022-09-09T06:19:00.829Z,17.90
2022-09-09T06:19:32.581Z,18.00
2022-09-09T06:20:05.129Z,18.00
2022-09-09T06:20:37.877Z,18.00
2022-09-09T06:21:14.466Z,18.00
2022-09-09T06:21:46.269Z,18.00
2022-09-09T06:22:19.033Z,18.00
2022-09-09T06:22:50.851Z,17.90
2022-09-09T06:23:22.698Z,17.90
2022-09-09T06:23:59.095Z,17.90
2022-09-09T06:24:33.822Z,17.90
2022-09-09T06:25:06.794Z,17.80
2022-09-09T06:25:41.601Z,17.90
2022-09-09T06:26:15.419Z,17.80
2022-09-09T06:26:48.240Z,17.90
2022-09-09T06:27:20.051Z,17.80
2022-09-09T06:27:52.829Z,17.90
2022-09-09T06:28:26.001Z,17.90
2022-09-09T06:28:58.911Z,17.90
2022-09-09T06:29:31.691Z,18.00
2022-09-09T06:30:04.623Z,17.90
2022-09-09T06:30:37.116Z,17.80
2022-09-09T06:31:11.610Z,17.90
2022-09-09T06:31:46.435Z,17.90
2022-09-09T06:32:20.559Z,17.90
2022-09-09T06:32:52.330Z,17.80
2022-09-09T06:33:24.293Z,17.90
2022-09-09T06:33:57.066Z,17.90
2022-09-09T06:34:29.212Z,17.90
2022-09-09T06:35:02.216Z,18.00
2022-09-09T06:35:35.049Z,17.90
2022-09-09T06:36:08.072Z,17.90
2022-09-09T06:36:40.183Z,17.90
2022-09-09T06:37:13.116Z,17.90
2022-09-09T06:37:46.338Z,17.80
2022-09-09T06:38:19.720Z,17.90
2022-09-09T06:38:52.977Z,17.90
2022-09-09T06:39:24.838Z,17.80
2022-09-09T06:39:56.635Z,17.80
2022-09-09T06:40:29.778Z,17.80
2022-09-09T06:41:02.293Z,17.70
2022-09-09T06:41:35.137Z,17.70
2022-09-09T06:42:09.469Z,17.70
2022-09-09T06:42:41.226Z,17.70
2022-09-09T06:43:13.997Z,17.70
2022-09-09T06:43:45.863Z,17.60
2022-09-09T06:44:18.650Z,17.70
2022-09-09T06:44:50.464Z,17.70
2022-09-09T06:45:22.286Z,17.70
2022-09-09T06:45:56.272Z,17.70
2022-09-09T06:46:30.120Z,17.60
2022-09-09T06:47:02.954Z,17.80
2022-09-09T06:47:36.141Z,17.80
2022-09-09T06:48:07.900Z,18.00
2022-09-09T06:48:42.526Z,17.90
2022-09-09T06:49:14.750Z,17.90
2022-09-09T06:49:48.447Z,17.90
2022-09-09T06:50:21.770Z,17.90
2022-09-09T06:51:01.734Z,18.00
2022-09-09T06:51:36.708Z,18.00
2022-09-09T06:52:10.450Z,18.00
2022-09-09T06:52:42.371Z,18.00
2022-09-09T06:53:20.089Z,18.00
2022-09-09T06:53:54.504Z,18.10
2022-09-09T06:54:27.400Z,18.10
2022-09-09T06:54:59.621Z,18.10
2022-09-09T06:55:31.404Z,18.10
2022-09-09T06:56:18.832Z,18.20
2022-09-09T06:56:50.923Z,18.20
2022-09-09T06:57:39.055Z,18.20
2022-09-09T06:58:10.840Z,18.20
2022-09-09T06:58:43.960Z,18.20
2022-09-09T06:59:16.686Z,18.20
2022-09-09T06:59:48.469Z,18.20
2022-09-09T07:00:20.237Z,18.20
2022-09-09T07:00:53.853Z,18.20
2022-09-09T07:01:27.932Z,18.20
2022-09-09T07:02:00.716Z,18.20
2022-09-09T07:02:32.614Z,18.20
2022-09-09T07:03:07.033Z,18.20
2022-09-09T07:03:39.871Z,18.30
2022-09-09T07:04:14.334Z,18.20
2022-09-09T07:04:47.704Z,18.30
2022-09-09T07:05:19.481Z,18.20
2022-09-09T07:05:58.862Z,18.20
2022-09-09T07:06:32.296Z,18.30
2022-09-09T07:07:05.223Z,18.30
2022-09-09T07:07:37.672Z,18.20
2022-09-09T07:08:09.608Z,18.20
2022-09-09T07:08:42.537Z,18.20
2022-09-09T07:09:16.884Z,18.20
2022-09-09T07:09:50.184Z,18.20
2022-09-09T07:10:21.973Z,18.20
2022-09-09T07:10:54.689Z,18.20
2022-09-09T07:11:28.841Z,18.20
2022-09-09T07:12:01.065Z,18.20
2022-09-09T07:12:33.794Z,18.20
2022-09-09T07:13:05.581Z,18.20
2022-09-09T07:13:37.512Z,18.20
2022-09-09T07:14:13.826Z,18.30
2022-09-09T07:14:46.270Z,18.30
2022-09-09T07:15:19.567Z,18.30
2022-09-09T07:15:51.370Z,18.30
2022-09-09T07:16:25.774Z,18.30
2022-09-09T07:16:59.802Z,18.40
2022-09-09T07:17:31.841Z,18.40
2022-09-09T07:18:06.264Z,18.40
2022-09-09T07:18:38.511Z,18.50
2022-09-09T07:19:10.681Z,18.50
2022-09-09T07:19:44.104Z,18.50
2022-09-09T07:20:16.375Z,18.50
2022-09-09T07:20:55.035Z,18.50
2022-09-09T07:21:29.250Z,18.50
2022-09-09T07:22:01.009Z,18.50
2022-09-09T07:22:33.986Z,18.50
2022-09-09T07:23:05.803Z,18.50
2022-09-09T07:23:37.573Z,18.50
2022-09-09T07:24:11.551Z,18.40
2022-09-09T07:24:45.959Z,18.40
2022-09-09T07:25:18.939Z,18.40
2022-09-09T07:25:51.328Z,18.30
2022-09-09T07:26:25.082Z,18.30
2022-09-09T07:26:57.875Z,18.30
2022-09-09T07:27:29.745Z,18.20
2022-09-09T07:28:01.853Z,18.20
2022-09-09T07:28:35.465Z,18.10
2022-09-09T07:29:07.972Z,18.00